Terminal Aerodrome Forecast
Issued by NWS

Home | Current Version | Previous Version | Graphics & Text | Print | Product List | Glossary On
Versions: 1 2 3 4 5 6 7 8 9 10 11 12 13 14 15 16 17 18 19 20 21 22 23 24 25 26
000
FTUS43 KTOP 230500
TAFFOE
TAF
KFOE 230520Z 2306/2406 12007KT P6SM OVC040
     FM231100 13008KT P6SM SHRA SCT015 OVC025
     FM231200 13008KT P6SM SHRA BKN015 OVC025
     FM231300 12009KT 6SM SHRA BR BKN008 OVC015
     FM231700 13012KT P6SM SHRA BKN015 OVC025
     FM240100 10010KT 4SM RA VCTS BKN015CB OVC025=

USA.gov is the U.S. government's official web portal to all federal, state and local government web resources and services.